createdAt,value
2019-01-30T00:02:14.460Z,51.90
2019-01-30T00:04:44.085Z,53.37
2019-01-30T00:07:13.857Z,56.73
2019-01-30T00:09:43.477Z,43.90
2019-01-30T00:12:13.287Z,47.50
2019-01-30T00:14:42.891Z,50.27
2019-01-30T00:17:12.539Z,47.93
2019-01-30T00:19:42.152Z,44.73
2019-01-30T00:22:12.218Z,41.60
2019-01-30T00:24:42.133Z,47.07
2019-01-30T00:27:11.752Z,42.33
2019-01-30T00:29:41.369Z,45.60
2019-01-30T00:32:11.623Z,43.23
2019-01-30T00:34:41.236Z,44.73
2019-01-30T00:37:11.117Z,40.40
2019-01-30T00:39:40.753Z,41.03
2019-01-30T00:42:10.758Z,46.83
2019-01-30T00:44:40.381Z,45.90
2019-01-30T00:47:15.874Z,44.37
2019-01-30T00:49:41.877Z,41.57
2019-01-30T00:52:11.856Z,41.60
2019-01-30T00:54:41.469Z,46.43
2019-01-30T00:57:11.096Z,42.17
2019-01-30T00:59:40.700Z,38.30
2019-01-30T01:02:10.546Z,49.50
2019-01-30T01:04:40.414Z,43.27
2019-01-30T01:07:10.151Z,44.53
2019-01-30T01:09:39.797Z,38.47
2019-01-30T01:12:09.479Z,46.17
2019-01-30T01:14:39.108Z,40.37
2019-01-30T01:17:08.976Z,42.93
2019-01-30T01:19:38.595Z,39.27
2019-01-30T01:22:08.614Z,45.30
2019-01-30T01:24:38.249Z,47.67
2019-01-30T01:27:08.232Z,36.93
2019-01-30T01:29:37.854Z,47.40
2019-01-30T01:32:07.772Z,41.47
2019-01-30T01:34:37.400Z,39.10
2019-01-30T01:37:07.329Z,37.40
2019-01-30T01:39:36.955Z,43.43
2019-01-30T01:42:06.990Z,39.53
2019-01-30T01:44:36.609Z,43.67
2019-01-30T01:47:06.541Z,42.70
2019-01-30T01:49:36.404Z,43.10
2019-01-30T01:52:06.372Z,39.00
2019-01-30T01:54:36.301Z,39.07
2019-01-30T01:57:05.993Z,43.23
2019-01-30T01:59:35.621Z,40.87
2019-01-30T02:02:05.477Z,41.43
2019-01-30T02:04:35.109Z,42.63
2019-01-30T02:07:04.957Z,37.73
2019-01-30T02:09:34.651Z,41.00
2019-01-30T02:12:04.612Z,44.07
2019-01-30T02:14:35.297Z,38.00
2019-01-30T02:17:05.144Z,39.57
2019-01-30T02:19:34.920Z,40.70
2019-01-30T02:22:04.638Z,43.13
2019-01-30T02:24:35.379Z,40.90
2019-01-30T02:27:05.497Z,42.97
2019-01-30T02:29:35.136Z,40.00
2019-01-30T02:32:05.338Z,39.97
2019-01-30T02:34:35.049Z,45.23
2019-01-30T02:37:04.735Z,41.53
2019-01-30T02:39:34.386Z,45.77
2019-01-30T02:42:04.645Z,45.33
2019-01-30T02:44:34.265Z,38.57
2019-01-30T02:47:04.063Z,42.70
2019-01-30T02:49:34.157Z,37.47
2019-01-30T02:52:04.444Z,39.53
2019-01-30T02:54:34.056Z,39.67
2019-01-30T02:57:03.952Z,44.83
2019-01-30T02:59:33.579Z,42.23
2019-01-30T03:02:21.664Z,39.13
2019-01-30T03:04:51.280Z,41.47
2019-01-30T03:07:20.893Z,43.93
2019-01-30T03:09:50.699Z,48.00
2019-01-30T03:12:20.635Z,43.30
2019-01-30T03:14:50.256Z,44.47
2019-01-30T03:17:19.869Z,41.97
2019-01-30T03:19:49.801Z,44.83
2019-01-30T03:22:19.426Z,46.90
2019-01-30T03:24:49.043Z,47.63
2019-01-30T03:27:18.719Z,47.93
2019-01-30T03:29:48.364Z,44.77
2019-01-30T03:32:18.026Z,43.67
2019-01-30T03:34:47.642Z,44.73
2019-01-30T03:37:17.333Z,47.23
2019-01-30T03:39:46.974Z,42.33
2019-01-30T03:42:17.032Z,54.43
2019-01-30T03:44:46.654Z,49.87
2019-01-30T03:47:16.615Z,48.13
2019-01-30T03:49:46.238Z,41.80
2019-01-30T03:52:15.867Z,43.87
2019-01-30T03:54:45.716Z,41.90
2019-01-30T03:57:15.437Z,48.37
2019-01-30T03:59:45.035Z,45.27
2019-01-30T04:02:14.651Z,43.33
2019-01-30T04:04:44.635Z,49.50
2019-01-30T04:07:14.829Z,44.90
2019-01-30T04:09:44.441Z,44.33
2019-01-30T04:12:14.379Z,46.83
2019-01-30T04:14:43.993Z,53.97
2019-01-30T04:17:13.624Z,43.20
2019-01-30T04:19:43.233Z,47.93
2019-01-30T04:22:12.857Z,46.87
2019-01-30T04:24:42.516Z,53.63
2019-01-30T04:27:12.185Z,43.27
2019-01-30T04:29:42.123Z,48.27
2019-01-30T04:32:11.745Z,57.63
2019-01-30T04:34:41.370Z,43.23
2019-01-30T04:37:11.066Z,47.23
2019-01-30T04:39:41.252Z,43.13
2019-01-30T04:42:11.402Z,48.40
2019-01-30T04:44:41.014Z,48.47
2019-01-30T04:47:10.652Z,44.60
2019-01-30T04:49:40.550Z,46.23
2019-01-30T04:52:10.173Z,50.23
2019-01-30T04:54:40.175Z,49.07
2019-01-30T04:57:10.413Z,45.57
2019-01-30T04:59:40.026Z,44.47
2019-01-30T05:02:09.640Z,45.80
2019-01-30T05:04:39.290Z,44.37
2019-01-30T05:07:08.978Z,43.33
2019-01-30T05:09:38.605Z,39.00
2019-01-30T05:12:08.229Z,41.27
2019-01-30T05:14:37.844Z,40.90
2019-01-30T05:17:07.585Z,41.10
2019-01-30T05:19:37.443Z,45.73
2019-01-30T05:22:07.361Z,39.67
2019-01-30T05:24:36.980Z,45.00
2019-01-30T05:27:07.044Z,36.43
2019-01-30T05:29:36.708Z,41.60
2019-01-30T05:32:06.492Z,34.53
2019-01-30T05:34:36.173Z,38.30
2019-01-30T05:37:05.789Z,39.97
2019-01-30T05:39:47.624Z,40.53
2019-01-30T05:42:17.506Z,36.07
2019-01-30T05:44:48.360Z,39.07
2019-01-30T05:47:18.465Z,38.93
2019-01-30T05:49:48.325Z,36.70
2019-01-30T05:52:18.289Z,41.93
2019-01-30T05:54:48.234Z,37.47
2019-01-30T05:57:17.854Z,38.93
2019-01-30T05:59:47.539Z,41.40
2019-01-30T06:02:17.145Z,36.10
2019-01-30T06:04:46.773Z,41.27
2019-01-30T06:07:16.386Z,39.47
2019-01-30T06:09:46.115Z,34.20
2019-01-30T06:12:15.724Z,36.60
2019-01-30T06:14:45.634Z,39.37
2019-01-30T06:17:15.495Z,38.40
2019-01-30T06:19:45.234Z,34.07
2019-01-30T06:22:14.843Z,36.03
2019-01-30T06:24:44.783Z,35.00
2019-01-30T06:27:14.474Z,35.77
2019-01-30T06:29:44.176Z,34.50
2019-01-30T06:32:21.663Z,36.30
2019-01-30T06:34:46.277Z,33.80
2019-01-30T06:37:18.246Z,34.13
2019-01-30T06:39:47.242Z,35.07
2019-01-30T06:42:16.943Z,32.07
2019-01-30T06:44:46.832Z,33.33
2019-01-30T06:47:16.670Z,32.67
2019-01-30T06:49:46.309Z,34.23
2019-01-30T06:52:16.189Z,31.33
2019-01-30T06:54:45.886Z,37.03
2019-01-30T06:57:15.621Z,31.87
2019-01-30T06:59:46.331Z,31.93
2019-01-30T07:02:16.008Z,34.63
2019-01-30T07:04:45.971Z,36.83
2019-01-30T07:07:15.668Z,38.80
2019-01-30T07:09:46.002Z,40.43
2019-01-30T07:12:15.941Z,35.43
2019-01-30T07:14:45.563Z,36.47
2019-01-30T07:17:15.185Z,32.73
2019-01-30T07:19:44.845Z,39.20
2019-01-30T07:22:14.482Z,36.47
2019-01-30T07:24:44.089Z,35.43
2019-01-30T07:27:13.797Z,38.57
2019-01-30T07:29:43.421Z,40.23
2019-01-30T07:32:13.126Z,33.80
2019-01-30T07:34:43.000Z,36.10
2019-01-30T07:37:12.746Z,31.60
2019-01-30T07:39:42.433Z,33.83
2019-01-30T07:42:12.123Z,37.87
2019-01-30T07:44:50.550Z,34.47
2019-01-30T07:47:13.148Z,37.97
2019-01-30T07:49:43.122Z,32.97
2019-01-30T07:52:12.990Z,30.90
2019-01-30T07:54:42.947Z,26.17
2019-01-30T07:57:12.571Z,31.07
2019-01-30T07:59:42.505Z,29.80
2019-01-30T08:02:12.217Z,29.90
2019-01-30T08:04:42.170Z,26.80
2019-01-30T08:07:11.941Z,28.73
2019-01-30T08:09:41.674Z,28.40
2019-01-30T08:12:12.626Z,29.60
2019-01-30T08:14:42.401Z,29.13
2019-01-30T08:17:12.043Z,30.33
2019-01-30T08:19:41.662Z,26.43
2019-01-30T08:22:11.522Z,29.40
2019-01-30T08:24:41.734Z,28.80
2019-01-30T08:27:11.588Z,28.40
2019-01-30T08:29:41.660Z,30.67
2019-01-30T08:32:30.640Z,25.47
2019-01-30T08:35:00.397Z,24.93
2019-01-30T08:37:30.178Z,28.23
2019-01-30T08:40:11.909Z,26.50
2019-01-30T08:42:41.771Z,26.13
2019-01-30T08:45:14.977Z,27.83
2019-01-30T08:47:44.673Z,28.43
2019-01-30T08:50:14.837Z,25.93
2019-01-30T08:52:44.518Z,27.60
2019-01-30T08:55:14.752Z,28.80
2019-01-30T08:57:45.415Z,27.60
2019-01-30T09:00:17.495Z,28.60
2019-01-30T09:02:47.376Z,29.23
2019-01-30T09:05:17.785Z,27.23
2019-01-30T09:07:47.477Z,30.73
2019-01-30T09:10:21.320Z,29.27
2019-01-30T09:12:51.165Z,29.83
2019-01-30T09:15:21.858Z,27.43
2019-01-30T09:17:51.612Z,24.90
2019-01-30T09:20:22.736Z,23.67
2019-01-30T09:22:52.723Z,25.03
2019-01-30T09:25:24.392Z,23.90
2019-01-30T09:27:54.137Z,29.33
2019-01-30T09:30:35.208Z,23.27
2019-01-30T09:33:06.325Z,24.70
2019-01-30T09:35:36.274Z,23.30
2019-01-30T09:38:06.256Z,24.70
2019-01-30T09:40:36.176Z,23.93
2019-01-30T09:43:05.979Z,22.97
2019-01-30T09:45:35.672Z,23.43
2019-01-30T09:48:06.521Z,25.33
2019-01-30T09:50:36.330Z,21.37
2019-01-30T09:53:06.246Z,24.20
2019-01-30T09:55:35.876Z,24.00
2019-01-30T09:58:05.897Z,22.37
2019-01-30T10:00:36.652Z,22.33
2019-01-30T10:03:06.765Z,27.67
2019-01-30T10:05:36.525Z,20.07
2019-01-30T10:08:07.589Z,23.27
2019-01-30T10:10:38.683Z,20.43
2019-01-30T10:13:08.872Z,23.07
2019-01-30T10:15:40.533Z,24.37
2019-01-30T10:18:11.393Z,20.83
2019-01-30T10:20:41.803Z,25.60
2019-01-30T10:23:11.483Z,24.40
2019-01-30T10:25:42.155Z,29.60
2019-01-30T10:28:16.633Z,32.60
2019-01-30T10:30:44.632Z,29.90
2019-01-30T10:33:14.769Z,21.17
2019-01-30T10:35:44.769Z,24.07
2019-01-30T10:38:15.608Z,24.13
2019-01-30T10:40:46.374Z,23.83
2019-01-30T10:43:16.493Z,20.30
2019-01-30T10:45:46.192Z,21.83
2019-01-30T10:48:16.768Z,22.90
2019-01-30T10:50:47.097Z,22.10
2019-01-30T10:53:17.044Z,19.53
2019-01-30T10:55:46.810Z,22.67
2019-01-30T10:58:18.049Z,21.97
2019-01-30T11:00:49.778Z,23.23
2019-01-30T11:03:20.006Z,21.73
2019-01-30T11:05:49.793Z,21.40
2019-01-30T11:08:19.713Z,21.20
2019-01-30T11:10:51.002Z,22.73
2019-01-30T11:13:20.773Z,22.37
2019-01-30T11:15:50.509Z,21.43
2019-01-30T11:18:20.656Z,20.33
2019-01-30T11:20:50.312Z,18.77
2019-01-30T11:23:19.928Z,19.63
2019-01-30T11:25:50.274Z,19.27
2019-01-30T11:28:19.920Z,20.40
2019-01-30T11:30:49.676Z,21.67
2019-01-30T11:33:19.803Z,19.50
2019-01-30T11:35:49.511Z,17.77
2019-01-30T11:38:19.131Z,19.40
2019-01-30T11:40:48.925Z,17.83
2019-01-30T11:43:18.552Z,15.77
2019-01-30T11:45:48.236Z,14.07
2019-01-30T11:48:18.484Z,17.27
2019-01-30T11:50:48.399Z,14.47
2019-01-30T11:53:18.088Z,14.03
2019-01-30T11:55:47.996Z,15.57
2019-01-30T11:58:17.935Z,13.23
2019-01-30T12:01:03.367Z,15.00
2019-01-30T12:03:32.746Z,16.90
2019-01-30T12:06:02.539Z,14.87
2019-01-30T12:08:32.410Z,12.37
2019-01-30T12:11:02.030Z,14.07
2019-01-30T12:13:31.665Z,11.40
2019-01-30T12:16:01.707Z,12.23
2019-01-30T12:18:31.461Z,10.43
2019-01-30T12:21:01.079Z,11.93
2019-01-30T12:23:30.683Z,11.50
2019-01-30T12:26:00.303Z,11.77
2019-01-30T12:28:29.921Z,11.43
2019-01-30T12:30:59.613Z,10.40
2019-01-30T12:33:29.633Z,14.20
2019-01-30T12:35:59.511Z,9.13
2019-01-30T12:38:29.161Z,11.03
2019-01-30T12:40:59.076Z,9.97
2019-01-30T12:43:28.688Z,10.13
2019-01-30T12:45:58.309Z,12.03
2019-01-30T12:48:28.581Z,9.70
2019-01-30T12:50:58.757Z,10.03
2019-01-30T12:53:28.369Z,11.57
2019-01-30T12:55:58.052Z,7.67
2019-01-30T12:58:27.908Z,11.10
2019-01-30T13:00:57.521Z,9.57
2019-01-30T13:03:27.137Z,7.30
2019-01-30T13:05:56.796Z,11.90
2019-01-30T13:08:26.643Z,7.80
2019-01-30T13:10:56.830Z,9.63
2019-01-30T13:13:26.438Z,11.20
2019-01-30T13:15:56.129Z,7.97
2019-01-30T13:18:26.193Z,10.97
2019-01-30T13:20:55.804Z,7.60
2019-01-30T13:23:25.505Z,8.27
2019-01-30T13:25:55.280Z,8.17
2019-01-30T13:28:25.162Z,9.63
2019-01-30T13:30:54.789Z,8.77
2019-01-30T13:33:24.566Z,8.87
2019-01-30T13:35:54.248Z,9.07
2019-01-30T13:38:24.162Z,5.93
2019-01-30T13:40:53.816Z,6.27
2019-01-30T13:43:23.574Z,6.20
2019-01-30T13:45:53.308Z,7.53
2019-01-30T13:48:23.133Z,10.03
2019-01-30T13:50:52.843Z,8.37
2019-01-30T13:53:22.454Z,8.03
2019-01-30T13:55:52.489Z,8.77
2019-01-30T13:58:22.496Z,7.57
2019-01-30T14:00:52.112Z,8.90
2019-01-30T14:03:21.861Z,8.03
2019-01-30T14:05:51.808Z,7.53
2019-01-30T14:08:21.421Z,8.93
2019-01-30T14:10:51.013Z,8.03
2019-01-30T14:13:20.713Z,7.77
2019-01-30T14:15:50.713Z,8.93
2019-01-30T14:18:20.438Z,7.93
2019-01-30T14:20:50.129Z,6.50
2019-01-30T14:23:20.239Z,8.57
2019-01-30T14:25:49.929Z,8.10
2019-01-30T14:28:19.831Z,6.40
2019-01-30T14:30:49.445Z,7.70
2019-01-30T14:33:19.150Z,6.80
2019-01-30T14:35:48.936Z,7.73
2019-01-30T14:38:18.712Z,6.97
2019-01-30T14:40:48.597Z,6.00
2019-01-30T14:43:18.278Z,9.93
2019-01-30T14:45:47.954Z,6.30
2019-01-30T14:48:18.545Z,6.47
2019-01-30T14:50:48.198Z,6.07
2019-01-30T14:53:17.846Z,6.13
2019-01-30T14:55:47.631Z,6.23
2019-01-30T14:58:17.383Z,7.40
2019-01-30T15:00:47.075Z,7.20
2019-01-30T15:03:16.881Z,4.97
2019-01-30T15:05:46.900Z,6.47
2019-01-30T15:08:16.772Z,9.57
2019-01-30T15:10:46.372Z,7.93
2019-01-30T15:13:16.069Z,6.07
2019-01-30T15:15:45.683Z,8.63
2019-01-30T15:18:15.364Z,8.87
2019-01-30T15:20:45.132Z,10.30
2019-01-30T15:23:14.806Z,8.37
2019-01-30T15:25:44.481Z,8.43
2019-01-30T15:28:14.110Z,8.40
2019-01-30T15:30:46.150Z,7.30
2019-01-30T15:33:16.030Z,10.60
2019-01-30T15:35:45.903Z,10.13
2019-01-30T15:38:20.511Z,9.33
2019-01-30T15:40:48.961Z,10.80
2019-01-30T15:43:19.624Z,9.57
2019-01-30T15:45:49.485Z,10.23
2019-01-30T15:48:19.983Z,11.67
2019-01-30T15:50:49.936Z,11.37
2019-01-30T15:53:21.825Z,8.77
2019-01-30T15:55:51.731Z,10.00
2019-01-30T15:58:22.119Z,10.40
2019-01-30T16:01:21.577Z,13.63
2019-01-30T16:03:51.195Z,11.80
2019-01-30T16:06:20.804Z,12.97
2019-01-30T16:08:50.519Z,11.77
2019-01-30T16:11:20.124Z,10.23
2019-01-30T16:13:49.976Z,11.77
2019-01-30T16:16:20.160Z,11.40
2019-01-30T16:18:49.852Z,12.60
2019-01-30T16:21:19.469Z,12.57
2019-01-30T16:23:49.085Z,11.50
2019-01-30T16:26:18.933Z,12.00
2019-01-30T16:28:48.640Z,12.73
2019-01-30T16:31:18.318Z,12.17
2019-01-30T16:33:48.957Z,12.67
2019-01-30T16:36:19.168Z,12.80
2019-01-30T16:38:49.021Z,14.33
2019-01-30T16:41:18.713Z,11.80
2019-01-30T16:43:48.388Z,11.70
2019-01-30T16:46:18.116Z,15.00
2019-01-30T16:48:47.704Z,15.53
2019-01-30T16:51:17.437Z,11.03
2019-01-30T16:53:47.044Z,15.67
2019-01-30T16:56:16.643Z,13.00
2019-01-30T16:58:46.350Z,12.93
2019-01-30T17:01:17.597Z,12.40
2019-01-30T17:03:47.279Z,16.10
2019-01-30T17:06:17.255Z,14.90
2019-01-30T17:08:46.868Z,14.93
2019-01-30T17:11:16.489Z,16.03
2019-01-30T17:13:46.257Z,15.23
2019-01-30T17:16:16.942Z,17.63
2019-01-30T17:18:46.821Z,19.23
2019-01-30T17:21:16.764Z,15.50
2019-01-30T17:23:46.676Z,16.17
2019-01-30T17:26:16.377Z,15.33
2019-01-30T17:28:45.984Z,15.70
2019-01-30T17:31:22.265Z,18.40
2019-01-30T17:33:52.162Z,13.53
2019-01-30T17:36:21.854Z,14.87
2019-01-30T17:38:51.477Z,16.97
2019-01-30T17:41:21.280Z,18.23
2019-01-30T17:43:51.260Z,18.03
2019-01-30T17:46:21.192Z,16.40
2019-01-30T17:48:51.764Z,17.93
2019-01-30T17:51:21.528Z,17.00
2019-01-30T17:53:51.176Z,18.27
2019-01-30T17:56:20.875Z,16.73
2019-01-30T17:58:50.529Z,16.80
2019-01-30T18:01:20.450Z,16.37
2019-01-30T18:03:51.031Z,20.50
2019-01-30T18:06:29.502Z,20.30
2019-01-30T18:08:52.029Z,18.77
2019-01-30T18:11:21.729Z,20.13
2019-01-30T18:13:51.665Z,17.87
2019-01-30T18:16:21.392Z,22.23
2019-01-30T18:18:51.261Z,19.53
2019-01-30T18:21:21.041Z,20.00
2019-01-30T18:23:50.800Z,19.77
2019-01-30T18:26:20.518Z,22.13
2019-01-30T18:28:50.762Z,21.10
2019-01-30T18:31:20.554Z,18.43
2019-01-30T18:33:50.577Z,18.93
2019-01-30T18:36:20.248Z,22.00
2019-01-30T18:38:49.894Z,21.13
2019-01-30T18:41:19.589Z,23.63
2019-01-30T18:43:49.196Z,21.03
2019-01-30T18:46:18.818Z,23.40
2019-01-30T18:48:49.100Z,20.03
2019-01-30T18:51:19.820Z,23.87
2019-01-30T18:53:49.428Z,25.17
2019-01-30T18:56:19.212Z,25.17
2019-01-30T18:58:48.937Z,25.43
2019-01-30T19:01:18.745Z,24.57
2019-01-30T19:03:48.422Z,27.23
2019-01-30T19:06:18.117Z,26.53
2019-01-30T19:08:47.737Z,27.80
2019-01-30T19:11:17.435Z,29.03
2019-01-30T19:13:47.048Z,28.73
2019-01-30T19:16:16.672Z,31.10
2019-01-30T19:18:48.989Z,32.93
2019-01-30T19:21:17.788Z,29.17
2019-01-30T19:23:47.417Z,27.90
2019-01-30T19:26:17.033Z,29.77
2019-01-30T19:28:46.768Z,29.77
2019-01-30T19:31:16.383Z,29.40
2019-01-30T19:33:46.397Z,31.33
2019-01-30T19:36:16.074Z,31.90
2019-01-30T19:38:46.023Z,30.80
2019-01-30T19:41:15.641Z,31.67
2019-01-30T19:43:45.256Z,31.90
2019-01-30T19:46:15.167Z,32.53
2019-01-30T19:48:44.800Z,35.67
2019-01-30T19:51:14.434Z,37.17
2019-01-30T19:53:44.056Z,36.83
2019-01-30T19:56:13.665Z,33.70
2019-01-30T19:58:43.290Z,34.50
2019-01-30T20:01:12.901Z,35.23
2019-01-30T20:03:42.620Z,36.53
2019-01-30T20:06:13.125Z,36.90
2019-01-30T20:08:42.921Z,33.03
2019-01-30T20:11:12.702Z,35.23
2019-01-30T20:13:42.405Z,35.67
2019-01-30T20:16:12.312Z,40.07
2019-01-30T20:18:41.933Z,38.07
2019-01-30T20:21:11.649Z,38.17
2019-01-30T20:23:41.340Z,35.47
2019-01-30T20:26:11.189Z,34.87
2019-01-30T20:28:40.796Z,37.60
2019-01-30T20:31:10.473Z,32.93
2019-01-30T20:33:40.479Z,37.97
2019-01-30T20:36:10.251Z,33.77
2019-01-30T20:38:39.856Z,36.67
2019-01-30T20:41:09.557Z,34.07
2019-01-30T20:43:39.735Z,32.40
2019-01-30T20:46:09.661Z,33.60
2019-01-30T20:48:48.569Z,31.67
2019-01-30T20:51:10.624Z,28.67
2019-01-30T20:53:40.238Z,32.70
2019-01-30T20:56:09.944Z,33.63
2019-01-30T20:58:40.076Z,32.37
2019-01-30T21:01:09.849Z,32.00
2019-01-30T21:03:39.461Z,32.63
2019-01-30T21:06:09.161Z,27.20
2019-01-30T21:08:39.093Z,31.67
2019-01-30T21:11:08.714Z,32.33
2019-01-30T21:13:38.606Z,30.77
2019-01-30T21:16:08.305Z,30.60
2019-01-30T21:18:37.916Z,32.10
2019-01-30T21:21:07.641Z,32.20
2019-01-30T21:23:37.262Z,29.13
2019-01-30T21:26:06.880Z,26.97
2019-01-30T21:28:36.491Z,31.40
2019-01-30T21:31:06.239Z,28.30
2019-01-30T21:33:36.241Z,29.17
2019-01-30T21:36:06.053Z,31.33
2019-01-30T21:38:35.978Z,28.87
2019-01-30T21:41:05.591Z,30.60
2019-01-30T21:43:35.489Z,30.03
2019-01-30T21:46:05.516Z,29.40
2019-01-30T21:48:35.222Z,26.23
2019-01-30T21:51:05.300Z,30.33
2019-01-30T21:53:35.000Z,30.20
2019-01-30T21:56:05.504Z,28.33
2019-01-30T21:58:35.454Z,29.00
2019-01-30T22:01:05.508Z,33.13
2019-01-30T22:03:35.660Z,32.77
2019-01-30T22:06:05.662Z,28.33
2019-01-30T22:08:35.951Z,29.70
2019-01-30T22:11:05.757Z,26.67
2019-01-30T22:13:35.377Z,29.80
2019-01-30T22:16:05.796Z,30.07
2019-01-30T22:18:35.714Z,30.70
2019-01-30T22:21:05.485Z,27.30
2019-01-30T22:23:35.614Z,31.70
2019-01-30T22:26:05.314Z,29.30
2019-01-30T22:28:34.941Z,30.60
2019-01-30T22:31:04.699Z,30.83
2019-01-30T22:33:34.517Z,30.60
2019-01-30T22:36:04.405Z,32.30
2019-01-30T22:38:34.016Z,30.53
2019-01-30T22:41:03.696Z,29.53
2019-01-30T22:43:33.361Z,31.57
2019-01-30T22:46:03.359Z,29.53
2019-01-30T22:48:33.623Z,34.00
2019-01-30T22:51:03.243Z,33.80
2019-01-30T22:53:33.285Z,27.97
2019-01-30T22:56:02.901Z,28.50
2019-01-30T22:58:33.593Z,32.93
2019-01-30T23:01:31.985Z,30.63
2019-01-30T23:04:22.259Z,33.27
2019-01-30T23:07:22.777Z,32.93
2019-01-30T23:10:55.365Z,33.63
2019-01-30T23:13:45.450Z,31.30
2019-01-30T23:16:52.668Z,29.93
2019-01-30T23:19:40.012Z,31.47
2019-01-30T23:23:00.281Z,31.80
2019-01-30T23:25:55.968Z,32.20
2019-01-30T23:28:41.760Z,33.97
2019-01-30T23:31:42.919Z,32.83
2019-01-30T23:34:49.261Z,29.97
2019-01-30T23:37:47.481Z,31.30
2019-01-30T23:40:23.843Z,33.70
2019-01-30T23:43:15.535Z,30.10
2019-01-30T23:45:55.665Z,34.10
2019-01-30T23:48:56.018Z,30.33
2019-01-30T23:51:32.541Z,31.87
2019-01-30T23:54:22.356Z,33.57
2019-01-30T23:57:11.769Z,32.97
2019-01-30T23:59:58.188Z,33.57
